Terminal Aerodrome Forecast
Issued by NWS

Home | Current Version | Previous Version | Text Only | Print | Product List | Glossary Off
Versions: 1 2 3 4 5 6 7 8 9 10 11 12 13 14 15 16 17

594
FTUS43 KIWX 170530
TAFSBN
TAF
KSBN 170530Z 1706/1806 21004KT P6SM SCT250
     FM171600 19010KT P6SM SCT060 BKN200
     FM172200 21011KT P6SM -SN OVC025
      TEMPO 1723/1803 5SM -SN OVC015=

USA.gov is the U.S. government's official web portal to all federal, state and local government web resources and services.